Time;durP1;ratioP1;P1;durP2;ratioP2;P2;SDS_P1;SDS_P2;PMS_P1;PMS_P2;Temp;Humidity;BMP_temperature;BMP_pressure;BME280_temperature;BME280_humidity;BME280_pressure;Samples;Min_cycle;Max_cycle;Signal;HPM_P1;HPM_P2
2022/11/14 00:00:33;;;;;;;15.93;12.13;;;;;;;5.15;100.00;101453.97;5296606;28;20020;-75
2022/11/14 00:03:06;;;;;;;15.17;11.20;;;;;;;5.02;100.00;101455.19;5295062;28;20035;-75
2022/11/14 00:05:43;;;;;;;14.10;11.07;;;;;;;5.02;100.00;101450.84;5298358;28;20031;-75
2022/11/14 00:08:17;;;;;;;14.70;10.77;;;;;;;4.97;100.00;101450.13;5300335;28;20081;-75
2022/11/14 00:10:50;;;;;;;12.70;10.38;;;;;;;5.10;100.00;101450.63;5300090;28;20031;-74
2022/11/14 00:13:22;;;;;;;16.70;11.47;;;;;;;5.09;100.00;101446.34;5300235;28;20024;-75
2022/11/14 00:15:53;;;;;;;12.03;10.07;;;;;;;4.97;100.00;101442.34;5299854;28;20039;-74
2022/11/14 00:18:24;;;;;;;16.00;11.13;;;;;;;5.02;100.00;101437.88;5299230;28;20571;-75
2022/11/14 00:20:55;;;;;;;13.17;10.57;;;;;;;4.95;100.00;101444.97;5299965;28;20032;-75
2022/11/14 00:23:27;;;;;;;14.33;10.30;;;;;;;5.00;100.00;101431.88;5297888;28;20068;-74
2022/11/14 00:25:58;;;;;;;13.67;10.50;;;;;;;4.90;100.00;101435.59;5298970;28;20047;-74
2022/11/14 00:28:29;;;;;;;14.13;10.20;;;;;;;4.98;100.00;101438.84;5300372;28;20110;-75
2022/11/14 00:31:01;;;;;;;11.53;10.07;;;;;;;4.80;100.00;101435.00;5298138;28;20024;-75
2022/11/14 00:33:32;;;;;;;11.53;10.33;;;;;;;4.90;100.00;101441.66;5297544;28;20036;-74
2022/11/14 00:36:03;;;;;;;13.47;10.47;;;;;;;4.82;100.00;101423.69;5298071;28;20028;-75
2022/11/14 00:38:35;;;;;;;12.80;9.43;;;;;;;4.86;100.00;101423.59;5299898;28;20088;-75
2022/11/14 00:41:06;;;;;;;13.17;9.73;;;;;;;4.88;100.00;101422.66;5303145;28;20027;-74
2022/11/14 00:43:37;;;;;;;12.10;9.40;;;;;;;4.77;100.00;101409.09;5300221;28;20120;-74
2022/11/14 00:46:09;;;;;;;12.13;9.87;;;;;;;4.82;100.00;101418.47;5299586;28;20039;-75
2022/11/14 00:48:40;;;;;;;11.10;9.27;;;;;;;4.96;100.00;101430.25;5303990;28;20028;-75
2022/11/14 00:51:12;;;;;;;10.17;9.07;;;;;;;4.69;100.00;101428.34;5299728;28;20052;-75
2022/11/14 00:53:43;;;;;;;13.33;9.43;;;;;;;4.74;100.00;101419.56;5298047;28;20058;-74
2022/11/14 00:56:14;;;;;;;13.63;9.70;;;;;;;4.69;100.00;101406.72;5299087;28;20099;-75
2022/11/14 00:58:46;;;;;;;10.97;9.27;;;;;;;4.68;100.00;101417.97;5299286;28;20039;-75
2022/11/14 01:01:17;;;;;;;9.93;8.73;;;;;;;4.74;100.00;101409.19;5299752;28;20024;-75
2022/11/14 01:03:50;;;;;;;12.27;9.17;;;;;;;4.71;100.00;101403.19;5298023;28;20068;-74
2022/11/14 01:06:21;;;;;;;12.23;10.30;;;;;;;4.64;100.00;101395.63;5298565;28;20052;-75
2022/11/14 01:08:52;;;;;;;14.73;9.33;;;;;;;4.58;100.00;101402.66;5297821;28;20455;-74
2022/11/14 01:11:24;;;;;;;10.60;9.03;;;;;;;4.69;100.00;101399.81;5301815;28;20463;-74
2022/11/14 01:13:55;;;;;;;10.47;8.63;;;;;;;4.74;100.00;101394.47;5302039;28;20029;-74
2022/11/14 01:16:27;;;;;;;10.23;8.70;;;;;;;4.58;100.00;101388.84;5298232;28;20058;-74
2022/11/14 01:18:58;;;;;;;12.30;8.43;;;;;;;4.67;100.00;101383.41;5298763;28;20024;-74
2022/11/14 01:21:29;;;;;;;10.43;9.10;;;;;;;4.67;100.00;101387.75;5299965;28;20077;-74
2022/11/14 01:24:01;;;;;;;11.67;8.77;;;;;;;4.65;100.00;101377.41;5300610;28;20035;-73
2022/11/14 01:26:32;;;;;;;10.47;8.43;;;;;;;4.71;100.00;101366.03;5299225;28;20028;-74
2022/11/14 01:29:03;;;;;;;14.57;8.67;;;;;;;4.63;100.00;101365.34;5299821;28;20056;-74
2022/11/14 01:31:35;;;;;;;10.20;8.77;;;;;;;4.62;100.00;101353.28;5297440;28;20020;-75
2022/11/14 01:34:06;;;;;;;11.80;8.83;;;;;;;4.45;100.00;101368.38;5296954;28;20071;-74
2022/11/14 01:36:38;;;;;;;10.50;8.00;;;;;;;4.50;100.00;101370.88;5298753;28;20042;-74
2022/11/14 01:39:09;;;;;;;12.07;8.37;;;;;;;4.42;100.00;101363.28;5297421;28;20046;-73
2022/11/14 01:41:40;;;;;;;11.83;8.13;;;;;;;4.44;100.00;101364.09;5299269;28;20392;-74
2022/11/14 01:44:16;;;;;;;11.63;8.50;;;;;;;4.39;100.00;101365.09;5297351;28;20020;-74
2022/11/14 01:46:53;;;;;;;12.23;8.80;;;;;;;4.43;100.00;101353.78;5297847;28;20028;-74
2022/11/14 01:49:36;;;;;;;12.30;8.70;;;;;;;4.44;100.00;101364.09;5297099;28;20027;-74
2022/11/14 01:52:13;;;;;;;11.10;8.57;;;;;;;4.47;100.00;101360.56;5298546;28;20103;-74
2022/11/14 01:54:48;;;;;;;11.30;8.30;;;;;;;4.09;100.00;101345.94;5295476;28;20509;-74
2022/11/14 01:57:26;;;;;;;9.20;7.93;;;;;;;4.37;100.00;101365.16;5298250;28;20036;-74
2022/11/14 02:00:02;;;;;;;13.87;8.57;;;;;;;4.22;100.00;101356.84;5297823;28;20104;-74
2022/11/14 02:02:34;;;;;;;13.50;8.43;;;;;;;4.18;100.00;101350.06;5298117;28;20491;-73
2022/11/14 02:05:10;;;;;;;13.10;9.10;;;;;;;4.24;100.00;101354.25;5296721;28;20036;-74
2022/11/14 02:07:41;;;;;;;9.57;8.23;;;;;;;4.11;100.00;101354.53;5297572;28;20044;-74
2022/11/14 02:10:18;;;;;;;13.17;8.60;;;;;;;4.17;100.00;101352.69;5298005;28;20039;-75
2022/11/14 02:12:50;;;;;;;12.03;8.43;;;;;;;3.93;100.00;101336.81;5298124;28;20104;-75
2022/11/14 02:15:23;;;;;;;11.20;8.20;;;;;;;3.98;100.00;101342.75;5296575;28;20028;-74
2022/11/14 02:17:54;;;;;;;11.17;8.33;;;;;;;3.98;100.00;101332.38;5296235;28;20077;-75
2022/11/14 02:20:32;;;;;;;11.53;8.67;;;;;;;4.08;100.00;101336.47;5297916;28;20471;-75
2022/11/14 02:23:03;;;;;;;14.30;8.87;;;;;;;3.93;100.00;101334.22;5298184;28;20093;-74
2022/11/14 02:25:35;;;;;;;12.60;7.97;;;;;;;4.02;100.00;101327.97;5299073;28;20123;-74
2022/11/14 02:28:08;;;;;;;10.50;7.87;;;;;;;4.05;100.00;101323.56;5298255;28;20085;-74
2022/11/14 02:30:39;;;;;;;11.27;8.73;;;;;;;3.98;100.00;101319.41;5298312;28;20073;-75
2022/11/14 02:33:11;;;;;;;10.73;7.67;;;;;;;3.92;100.00;101314.41;5297535;28;20024;-75
2022/11/14 02:35:42;;;;;;;10.03;7.90;;;;;;;4.02;100.00;101318.47;5298893;28;20020;-75
2022/11/14 02:38:13;;;;;;;9.87;8.23;;;;;;;3.84;100.00;101324.97;5297242;28;20028;-75
2022/11/14 02:40:44;;;;;;;11.30;7.40;;;;;;;3.91;100.00;101320.47;5297187;28;20050;-75
2022/11/14 02:43:16;;;;;;;14.70;8.63;;;;;;;3.94;100.00;101334.22;5298480;28;20103;-75
2022/11/14 02:45:47;;;;;;;13.67;7.87;;;;;;;3.84;100.00;101328.38;5297120;28;20031;-74
2022/11/14 02:48:18;;;;;;;9.27;7.40;;;;;;;4.07;100.00;101320.94;5297655;28;20028;-74
2022/11/14 02:50:50;;;;;;;12.83;8.13;;;;;;;3.77;100.00;101308.69;5298173;28;20039;-74
2022/11/14 02:53:21;;;;;;;10.90;8.07;;;;;;;3.62;100.00;101313.34;5298779;28;20031;-74
2022/11/14 02:55:53;;;;;;;13.23;8.57;;;;;;;3.78;100.00;101314.72;5298514;28;20028;-74
2022/11/14 02:58:24;;;;;;;10.23;7.50;;;;;;;3.71;100.00;101301.06;5298585;28;20028;-74
2022/11/14 03:00:55;;;;;;;10.47;7.83;;;;;;;3.63;100.00;101306.44;5298292;28;20092;-74
2022/11/14 03:03:26;;;;;;;11.83;8.53;;;;;;;3.69;100.00;101297.66;5297115;28;20020;-74
2022/11/14 03:06:02;;;;;;;11.50;7.70;;;;;;;3.76;100.00;101301.81;5298228;28;20044;-75
2022/11/14 03:08:33;;;;;;;11.03;7.57;;;;;;;3.73;100.00;101299.28;5298447;28;20486;-75
2022/11/14 03:11:07;;;;;;;11.10;7.47;;;;;;;3.59;100.00;101300.47;5298440;28;20028;-75
2022/11/14 03:13:38;;;;;;;10.90;7.87;;;;;;;3.45;100.00;101302.53;5297791;28;20059;-75
2022/11/14 03:16:11;;;;;;;10.17;7.73;;;;;;;3.51;100.00;101276.47;5297933;28;20055;-74
2022/11/14 03:18:43;;;;;;;12.07;8.47;;;;;;;3.51;100.00;101292.00;5297578;28;20020;-75
2022/11/14 03:21:19;;;;;;;13.67;8.53;;;;;;;3.45;100.00;101285.25;5299163;28;20066;-75
2022/11/14 03:23:50;;;;;;;11.10;8.07;;;;;;;3.49;100.00;101289.47;5304516;28;20467;-74
2022/11/14 03:26:22;;;;;;;10.77;7.90;;;;;;;3.38;100.00;101281.97;5299804;28;20085;-74
2022/11/14 03:28:54;;;;;;;12.37;7.83;;;;;;;3.38;100.00;101292.31;5298022;28;20031;-75
2022/11/14 03:31:25;;;;;;;11.17;7.80;;;;;;;3.36;100.00;101294.09;5297940;28;20024;-74
2022/11/14 03:33:56;;;;;;;12.30;7.70;;;;;;;3.36;100.00;101288.91;5298546;28;20107;-75
2022/11/14 03:36:28;;;;;;;10.03;7.50;;;;;;;3.38;100.00;101284.53;5299142;28;20046;-74
2022/11/14 03:38:59;;;;;;;10.53;8.10;;;;;;;3.31;100.00;101284.69;5299597;28;20020;-74
2022/11/14 03:41:30;;;;;;;13.70;7.80;;;;;;;3.10;100.00;101269.63;5303567;28;20021;-75
2022/11/14 03:44:02;;;;;;;11.03;8.17;;;;;;;3.16;100.00;101275.53;5303249;28;20039;-75
2022/11/14 03:46:33;;;;;;;12.57;7.17;;;;;;;3.33;100.00;101278.63;5300708;28;20032;-75
2022/11/14 03:49:04;;;;;;;13.27;8.60;;;;;;;3.19;100.00;101291.00;5303182;28;20062;-75
2022/11/14 03:51:36;;;;;;;15.40;9.03;;;;;;;3.13;100.00;101286.81;5301549;28;20032;-74
2022/11/14 03:54:07;;;;;;;12.23;7.97;;;;;;;3.26;100.00;101272.69;5303600;28;20020;-74
2022/11/14 03:56:38;;;;;;;9.70;7.20;;;;;;;3.25;100.00;101275.31;5302012;28;20028;-75
2022/11/14 03:59:09;;;;;;;14.70;8.27;;;;;;;3.25;100.00;101275.31;5303663;28;20024;-75
2022/11/14 04:01:41;;;;;;;12.07;8.27;;;;;;;3.19;100.00;101280.66;5301262;28;20020;-75
2022/11/14 04:04:12;;;;;;;10.07;7.27;;;;;;;3.14;100.00;101271.22;5301314;28;20055;-74
2022/11/14 04:06:44;;;;;;;12.93;8.40;;;;;;;2.97;100.00;101260.38;5301911;28;20055;-75
2022/11/14 04:09:16;;;;;;;10.70;7.60;;;;;;;3.12;100.00;101252.31;5304016;28;20024;-75
2022/11/14 04:11:47;;;;;;;13.73;7.67;;;;;;;2.98;100.00;101257.78;5302587;28;20107;-75
2022/11/14 04:14:18;;;;;;;12.90;7.80;;;;;;;2.99;100.00;101254.31;5301671;28;20020;-74
2022/11/14 04:16:49;;;;;;;12.43;7.70;;;;;;;3.13;100.00;101254.00;5299787;28;20024;-75
2022/11/14 04:19:21;;;;;;;11.43;8.37;;;;;;;3.06;100.00;101249.84;5303337;28;20152;-75
2022/11/14 04:21:52;;;;;;;10.90;7.43;;;;;;;2.99;100.00;101248.28;5301786;28;20047;-75
2022/11/14 04:24:23;;;;;;;12.17;8.13;;;;;;;2.93;100.00;101246.69;5301552;28;20024;-75
2022/11/14 04:26:54;;;;;;;11.30;8.83;;;;;;;2.96;100.00;101243.16;5302552;28;20032;-74
2022/11/14 04:29:26;;;;;;;12.70;7.77;;;;;;;2.99;100.00;101245.69;5303417;28;20020;-75
2022/11/14 04:31:57;;;;;;;10.17;8.13;;;;;;;2.96;100.00;101243.16;5301533;28;20042;-74
2022/11/14 04:34:28;;;;;;;10.40;7.80;;;;;;;2.90;100.00;101237.25;5303232;28;20035;-75
2022/11/14 04:37:00;;;;;;;11.20;8.20;;;;;;;2.87;100.00;101244.22;5301159;28;20028;-74
2022/11/14 04:39:31;;;;;;;12.53;7.43;;;;;;;2.90;100.00;101239.81;5304934;28;20021;-74
2022/11/14 04:42:02;;;;;;;10.27;7.87;;;;;;;2.83;100.00;101237.41;5301063;28;20024;-75
2022/11/14 04:44:34;;;;;;;9.87;7.83;;;;;;;2.81;100.00;101228.84;5301014;28;20016;-75
2022/11/14 04:47:05;;;;;;;11.63;7.70;;;;;;;2.90;100.00;101239.81;5300057;28;20047;-74
2022/11/14 04:49:36;;;;;;;9.97;7.13;;;;;;;2.78;100.00;101237.50;5300655;28;20099;-73
2022/11/14 04:52:07;;;;;;;10.97;7.53;;;;;;;2.78;100.00;101237.50;5299962;28;20020;-75
2022/11/14 04:54:39;;;;;;;10.27;7.97;;;;;;;2.76;100.00;101226.31;5299957;28;20028;-75
2022/11/14 04:57:10;;;;;;;12.83;7.40;;;;;;;2.51;100.00;101219.91;5299998;28;20112;-74
2022/11/14 04:59:41;;;;;;;11.10;7.77;;;;;;;2.61;100.00;101218.00;5300954;28;20027;-74
2022/11/14 05:02:13;;;;;;;10.50;7.60;;;;;;;2.72;100.00;101229.88;5300031;28;20053;-74
2022/11/14 05:04:46;;;;;;;13.87;7.63;;;;;;;2.74;100.00;101238.47;5300456;28;20024;-74
2022/11/14 05:07:17;;;;;;;13.27;8.37;;;;;;;2.64;100.00;101225.69;5301675;28;20606;-74
2022/11/14 05:09:48;;;;;;;13.77;8.57;;;;;;;2.47;100.00;101230.34;5301775;28;20024;-74
2022/11/14 05:12:19;;;;;;;9.33;7.67;;;;;;;2.52;100.00;101229.38;5301897;28;20024;-75
2022/11/14 05:14:51;;;;;;;11.67;7.90;;;;;;;2.58;100.00;101230.16;5301665;28;20078;-75
2022/11/14 05:17:22;;;;;;;11.17;8.70;;;;;;;2.54;100.00;101206.09;5301472;28;20027;-74
2022/11/14 05:19:53;;;;;;;13.00;8.73;;;;;;;2.51;100.00;101213.91;5301682;28;20051;-74
2022/11/14 05:22:25;;;;;;;10.13;7.57;;;;;;;2.54;100.00;101201.78;5301684;28;20038;-76
2022/11/14 05:24:56;;;;;;;9.23;7.77;;;;;;;2.42;100.00;101202.88;5301593;28;20089;-74
2022/11/14 05:27:28;;;;;;;14.77;8.43;;;;;;;2.50;100.00;101201.84;5301816;28;20027;-74
2022/11/14 05:29:59;;;;;;;11.87;7.57;;;;;;;2.53;100.00;101200.06;5300035;28;20417;-74
2022/11/14 05:32:30;;;;;;;15.93;8.63;;;;;;;2.47;100.00;101199.31;5300827;28;20024;-74
2022/11/14 05:35:03;;;;;;;11.00;8.23;;;;;;;2.45;100.00;101201.09;5300550;28;20077;-73
2022/11/14 05:37:34;;;;;;;10.17;8.03;;;;;;;2.46;100.00;101200.22;5299943;28;20070;-74
2022/11/14 05:40:06;;;;;;;11.60;7.33;;;;;;;2.50;100.00;101184.59;5301335;28;20024;-73
2022/11/14 05:42:37;;;;;;;10.57;8.33;;;;;;;2.50;100.00;101188.91;5299877;28;20032;-74
2022/11/14 05:45:09;;;;;;;14.67;8.80;;;;;;;2.49;100.00;101197.56;5300114;28;20486;-73
2022/11/14 05:47:40;;;;;;;16.10;8.57;;;;;;;2.42;100.00;101191.69;5300355;28;20036;-74
2022/11/14 05:50:12;;;;;;;19.57;9.97;;;;;;;2.49;100.00;101192.41;5301021;28;20107;-74
2022/11/14 05:52:43;;;;;;;13.63;8.80;;;;;;;2.51;100.00;101193.22;5300483;28;20024;-74
2022/11/14 05:55:14;;;;;;;12.77;9.40;;;;;;;2.47;100.00;101187.25;5304561;28;20024;-73
2022/11/14 05:57:46;;;;;;;14.53;7.97;;;;;;;2.58;100.00;101187.06;5300523;28;20030;-75
2022/11/14 06:00:17;;;;;;;12.67;7.93;;;;;;;2.54;100.00;101181.09;5299746;28;20027;-74
2022/11/14 06:02:53;;;;;;;13.93;7.97;;;;;;;2.60;100.00;101185.25;5298362;28;20066;-75
2022/11/14 06:05:25;;;;;;;12.37;7.70;;;;;;;2.44;100.00;101186.47;5300124;28;20024;-75
2022/11/14 06:07:57;;;;;;;11.60;8.80;;;;;;;2.74;100.00;101194.50;5298350;28;20036;-74
2022/11/14 06:10:30;;;;;;;10.87;8.30;;;;;;;2.59;100.00;101193.91;5300082;28;20132;-75
2022/11/14 06:13:01;;;;;;;14.43;7.83;;;;;;;2.56;100.00;101183.63;5299850;28;20726;-75
2022/11/14 06:15:32;;;;;;;11.10;8.40;;;;;;;2.47;100.00;101183.81;5300528;28;20036;-75
2022/11/14 06:18:03;;;;;;;14.37;8.13;;;;;;;2.46;100.00;101200.22;5299955;28;20036;-75
2022/11/14 06:20:35;;;;;;;12.90;8.73;;;;;;;2.45;100.00;101195.91;5300259;28;20496;-75
2022/11/14 06:23:06;;;;;;;12.87;8.30;;;;;;;2.34;100.00;101185.81;5300918;28;20483;-75
2022/11/14 06:25:37;;;;;;;11.50;7.63;;;;;;;2.26;100.00;101185.94;5300861;28;20058;-75
2022/11/14 06:28:09;;;;;;;12.40;7.83;;;;;;;2.45;100.00;101185.56;5300182;28;20035;-74
2022/11/14 06:30:40;;;;;;;12.77;8.93;;;;;;;2.49;100.00;101184.63;5299245;28;20030;-74
2022/11/14 06:33:11;;;;;;;13.03;7.70;;;;;;;2.51;100.00;101180.28;5298294;28;20028;-74
2022/11/14 06:35:43;;;;;;;12.57;8.40;;;;;;;2.28;100.00;101176.44;5299886;28;20108;-75
2022/11/14 06:38:15;;;;;;;13.00;8.67;;;;;;;2.35;100.00;101188.38;5299098;28;20033;-75
2022/11/14 06:40:47;;;;;;;12.13;8.70;;;;;;;2.40;100.00;101181.38;5279651;28;20036;-76
2022/11/14 06:43:18;;;;;;;9.97;7.87;;;;;;;2.32;100.00;101188.44;5300664;28;20020;-74
2022/11/14 06:45:53;;;;;;;12.70;8.50;;;;;;;2.28;100.00;101189.34;5298338;28;20028;-73
2022/11/14 06:48:24;;;;;;;17.52;8.52;;;;;;;2.14;100.00;101182.72;5300028;28;20137;-74
2022/11/14 06:50:57;;;;;;;13.13;7.93;;;;;;;2.24;100.00;101200.63;5298917;28;20091;-73
2022/11/14 06:53:31;;;;;;;11.13;8.30;;;;;;;2.24;100.00;101183.41;5298812;28;20028;-72
2022/11/14 06:56:08;;;;;;;16.80;9.30;;;;;;;2.27;100.00;101203.19;5294090;28;20022;-74
2022/11/14 06:58:41;;;;;;;14.30;9.03;;;;;;;2.36;100.00;101202.97;5291694;28;20474;-70
2022/11/14 07:01:24;;;;;;;12.17;7.83;;;;;;;2.27;100.00;101201.41;5297577;28;20016;-70
2022/11/14 07:03:57;;;;;;;13.70;9.10;;;;;;;2.29;100.00;101207.41;5277612;28;20032;-71
2022/11/14 07:06:30;;;;;;;12.37;8.90;;;;;;;2.33;100.00;101208.22;5277769;28;20468;-70
2022/11/14 07:09:01;;;;;;;12.90;8.50;;;;;;;2.35;100.00;101210.75;5277565;28;20059;-70
2022/11/14 07:11:34;;;;;;;16.10;9.00;;;;;;;2.28;100.00;101208.31;5289590;28;20522;-72
2022/11/14 07:14:05;;;;;;;12.83;8.70;;;;;;;2.23;100.00;101217.03;5297041;28;20020;-69
2022/11/14 07:16:37;;;;;;;13.30;9.07;;;;;;;2.29;100.00;101207.41;5288085;28;20020;-70
2022/11/14 07:19:09;;;;;;;13.50;8.83;;;;;;;2.32;100.00;101214.28;5297594;28;20042;-70
2022/11/14 07:21:40;;;;;;;11.43;8.27;;;;;;;2.21;100.00;101214.47;5297646;28;20024;-70
2022/11/14 07:24:12;;;;;;;18.13;10.00;;;;;;;2.35;100.00;101221.09;5297183;28;20024;-68
2022/11/14 07:26:44;;;;;;;13.90;9.53;;;;;;;2.38;100.00;101219.31;5294535;28;20032;-69
2022/11/14 07:29:15;;;;;;;13.30;9.03;;;;;;;2.37;100.00;101215.03;5285314;28;20016;-68
2022/11/14 07:31:47;;;;;;;14.97;10.07;;;;;;;2.40;100.00;101208.94;5294763;28;20035;-69
2022/11/14 07:34:18;;;;;;;13.70;9.60;;;;;;;2.50;100.00;101205.28;5294889;28;20032;-69
2022/11/14 07:36:49;;;;;;;17.90;9.50;;;;;;;2.51;100.00;101198.41;5292787;28;20028;-68
2022/11/14 07:39:21;;;;;;;19.87;9.63;;;;;;;2.58;100.00;101193.94;5291983;28;20052;-69
2022/11/14 07:41:52;;;;;;;14.77;10.40;;;;;;;2.49;100.00;101189.81;5289638;28;20031;-71
2022/11/14 07:44:23;;;;;;;18.90;10.17;;;;;;;2.59;100.00;101188.75;5304183;28;20144;-69
2022/11/14 07:46:55;;;;;;;12.47;9.23;;;;;;;2.55;100.00;101189.69;5290128;28;20474;-69
2022/11/14 07:49:26;;;;;;;16.13;9.43;;;;;;;2.65;100.00;101188.59;5293590;28;20086;-68
2022/11/14 07:51:57;;;;;;;15.83;10.30;;;;;;;2.66;100.00;101189.47;5290841;28;20028;-69
2022/11/14 07:54:28;;;;;;;20.40;10.37;;;;;;;2.66;100.00;101184.28;5294359;28;20032;-69
2022/11/14 07:57:00;;;;;;;14.03;10.30;;;;;;;2.77;100.00;101186.66;5296070;28;20047;-69
2022/11/14 07:59:31;;;;;;;17.13;10.40;;;;;;;2.75;100.00;101189.28;5293731;28;20106;-71
2022/11/14 08:02:02;;;;;;;15.67;10.73;;;;;;;2.78;100.00;101180.59;5294374;28;20032;-70
2022/11/14 08:04:33;;;;;;;13.23;9.37;;;;;;;2.84;100.00;101184.78;5293188;28;20039;-70
2022/11/14 08:07:05;;;;;;;13.47;10.20;;;;;;;2.89;100.00;101176.03;5291622;28;20048;-69
2022/11/14 08:09:36;;;;;;;14.17;10.93;;;;;;;2.95;100.00;101176.78;5292543;28;20032;-70
2022/11/14 08:12:07;;;;;;;16.13;9.83;;;;;;;2.92;100.00;101169.94;5287818;28;20032;-71
2022/11/14 08:14:38;;;;;;;20.77;10.27;;;;;;;3.04;100.00;101165.38;5294518;28;20443;-71
2022/11/14 08:17:10;;;;;;;16.20;10.20;;;;;;;3.03;100.00;101156.75;5287113;28;20040;-70
2022/11/14 08:19:41;;;;;;;13.77;10.00;;;;;;;3.16;100.00;101162.47;5301475;28;20028;-69
2022/11/14 08:22:12;;;;;;;15.77;10.23;;;;;;;3.18;100.00;101159.88;5306075;28;20111;-68
2022/11/14 08:24:44;;;;;;;17.30;10.10;;;;;;;3.24;100.00;101162.31;5296768;28;20073;-68
2022/11/14 08:27:15;;;;;;;15.33;9.43;;;;;;;3.24;100.00;101154.56;5301325;28;20046;-69
2022/11/14 08:29:46;;;;;;;17.60;10.57;;;;;;;3.29;100.00;101160.47;5299418;28;20027;-72
2022/11/14 08:32:18;;;;;;;16.87;10.53;;;;;;;3.32;100.00;101157.81;5297915;28;20032;-70
2022/11/14 08:34:49;;;;;;;13.13;9.83;;;;;;;3.38;100.00;101162.00;5298945;28;20031;-70
2022/11/14 08:37:20;;;;;;;16.13;10.03;;;;;;;3.43;100.00;101146.31;5298423;28;20024;-70
2022/11/14 08:39:52;;;;;;;13.43;10.30;;;;;;;3.48;100.00;101141.88;5290916;28;20043;-69
2022/11/14 08:42:23;;;;;;;13.73;9.77;;;;;;;3.53;100.00;101137.44;5303124;28;20035;-69
2022/11/14 08:44:54;;;;;;;14.77;11.03;;;;;;;3.61;100.00;101143.25;5290783;28;20115;-69
2022/11/14 08:47:25;;;;;;;14.07;9.87;;;;;;;3.65;100.00;101140.63;5296858;28;20020;-69
2022/11/14 08:49:57;;;;;;;18.33;10.50;;;;;;;3.69;100.00;101143.09;5300181;28;20062;-69
2022/11/14 08:52:28;;;;;;;13.97;10.00;;;;;;;3.69;100.00;101129.28;5298798;28;20082;-74
2022/11/14 08:54:59;;;;;;;15.60;10.83;;;;;;;3.86;100.00;101146.94;5293650;28;20032;-71
2022/11/14 08:57:31;;;;;;;16.97;11.47;;;;;;;3.91;100.00;101146.84;5297605;28;20020;-70
2022/11/14 09:00:02;;;;;;;15.97;11.43;;;;;;;3.96;100.00;101142.41;5299591;28;20649;-70
2022/11/14 09:02:34;;;;;;;12.40;9.37;;;;;;;4.06;100.00;101142.97;5298570;28;20434;-70
2022/11/14 09:05:05;;;;;;;14.40;10.07;;;;;;;4.12;100.00;101147.97;5300615;28;20852;-70
2022/11/14 09:07:37;;;;;;;15.50;9.93;;;;;;;4.19;100.00;101133.97;5299441;28;20048;-71
2022/11/14 09:10:08;;;;;;;15.53;10.67;;;;;;;4.29;100.00;101136.31;5299991;28;20036;-70
2022/11/14 09:12:39;;;;;;;11.93;10.13;;;;;;;4.32;100.00;101123.25;5314278;28;20466;-71
2022/11/14 09:15:11;;;;;;;15.70;10.67;;;;;;;4.40;100.00;101131.66;5314263;28;20028;-71
2022/11/14 09:17:42;;;;;;;13.93;9.90;;;;;;;4.38;100.00;101122.22;5298248;28;20050;-71
2022/11/14 09:20:14;;;;;;;18.17;10.80;;;;;;;4.69;100.00;101119.56;5301021;28;20042;-70
2022/11/14 09:22:45;;;;;;;14.93;9.40;;;;;;;6.07;100.00;101122.88;5284155;28;20024;-71
2022/11/14 09:25:17;;;;;;;20.13;9.13;;;;;;;7.61;100.00;101102.13;5279337;28;20063;-72
2022/11/14 09:27:48;;;;;;;12.40;8.70;;;;;;;8.80;100.00;101113.31;5304775;28;20444;-72
2022/11/14 09:30:21;;;;;;;11.40;7.87;;;;;;;9.77;100.00;101105.91;5299067;28;20024;-72
2022/11/14 09:32:57;;;;;;;10.50;7.13;;;;;;;10.34;100.00;101100.34;5300271;28;20028;-79
2022/11/14 09:35:30;;;;;;;9.53;7.33;;;;;;;10.30;100.00;101104.91;5299062;28;20490;-77
2022/11/14 09:38:04;;;;;;;10.90;7.77;;;;;;;9.76;100.00;101104.25;5292231;28;20105;-76
2022/11/14 09:41:07;;;;;;;11.60;7.90;;;;;;;10.24;100.00;101102.63;5289382;28;20039;-76
2022/11/14 09:44:00;;;;;;;11.27;8.23;;;;;;;9.77;100.00;101108.53;5258125;28;20032;-74
2022/11/14 09:46:38;;;;;;;10.20;8.80;;;;;;;9.01;100.00;101101.88;5295341;28;20048;-74
2022/11/14 09:49:25;;;;;;;12.03;8.77;;;;;;;9.02;100.00;101098.38;5288663;28;20398;-73
2022/11/14 09:52:12;;;;;;;15.27;9.57;;;;;;;8.43;100.00;101102.00;5293530;28;20027;-73
2022/11/14 09:54:57;;;;;;;15.00;9.07;;;;;;;7.94;100.00;101114.56;5318904;28;20055;-80
2022/11/14 09:57:31;;;;;;;;;;;;;;;7.97;100.00;101108.38;5298578;28;20036;-74
2022/11/14 10:00:12;;;;;;;14.85;9.90;;;;;;;7.62;100.00;101098.59;5298938;28;19916;-75
2022/11/14 10:03:25;;;;;;;13.30;9.13;;;;;;;7.66;100.00;101107.13;5299509;28;20024;-75
2022/11/14 10:06:17;;;;;;;16.10;9.37;;;;;;;7.60;100.00;101100.41;5288927;28;20048;-73
2022/11/14 10:09:07;;;;;;;14.73;9.83;;;;;;;7.58;100.00;101102.22;5296490;28;20085;-73
2022/11/14 10:12:17;;;;;;;14.23;9.67;;;;;;;7.57;100.00;101096.19;5295789;28;20842;-75
2022/11/14 10:15:10;;;;;;;12.03;9.33;;;;;;;7.40;100.00;101107.31;5267726;28;20036;-75
2022/11/14 10:18:01;;;;;;;11.90;10.07;;;;;;;7.46;100.00;101094.03;5296886;28;20069;-74
2022/11/14 10:21:09;;;;;;;18.70;9.63;;;;;;;7.35;100.00;101091.03;5310744;28;20545;-74
2022/11/14 10:24:04;;;;;;;13.43;8.97;;;;;;;7.32;100.00;101091.16;5277450;28;20069;-73
2022/11/14 10:26:45;;;;;;;12.35;9.95;;;;;;;7.28;100.00;101084.41;5294302;28;20036;-73
2022/11/14 10:29:28;;;;;;;15.20;10.33;;;;;;;7.40;100.00;101096.88;5297751;28;20114;-74
2022/11/14 10:32:21;;;;;;;15.07;11.20;;;;;;;7.44;100.00;101093.25;5277193;28;20039;-74
2022/11/14 10:35:09;;;;;;;14.37;10.90;;;;;;;7.48;100.00;101080.94;5296924;28;20024;-74
2022/11/14 10:37:55;;;;;;;15.87;11.27;;;;;;;7.54;100.00;101090.25;5295297;28;20020;-76
2022/11/14 10:40:36;;;;;;;12.87;11.17;;;;;;;7.65;100.00;101092.38;5296188;28;20391;-74
2022/11/14 10:43:36;;;;;;;15.10;10.40;;;;;;;7.77;100.00;101084.03;5296935;28;20039;-75
2022/11/14 10:46:14;;;;;;;16.30;10.53;;;;;;;7.71;100.00;101081.69;5290131;28;20051;-78
2022/11/14 10:48:48;;;;;;;13.10;11.13;;;;;;;7.85;100.00;101074.09;5295357;28;20024;-76
2022/11/14 10:51:23;;;;;;;;;;;;;;;7.97;100.00;101077.94;5301016;28;20024;-74
2022/11/14 10:54:01;;;;;;;16.80;10.65;;;;;;;8.05;100.00;101064.53;5294062;28;20018;-75
2022/11/14 10:56:32;;;;;;;19.13;12.90;;;;;;;7.99;100.00;101083.09;5287887;28;20046;-74
2022/11/14 10:59:07;;;;;;;15.13;11.53;;;;;;;8.04;100.00;101070.69;5276137;28;20056;-74
2022/11/14 11:01:40;;;;;;;17.50;12.17;;;;;;;8.09;100.00;101068.69;5290044;28;20359;-76
2022/11/14 11:04:20;;;;;;;13.73;12.07;;;;;;;8.19;100.00;101071.72;5289176;28;20020;-76
2022/11/14 11:06:55;;;;;;;17.90;13.57;;;;;;;8.21;100.00;101069.03;5286443;28;20051;-77
2022/11/14 11:12:19;;;;;;;17.13;11.90;;;;;;;8.16;100.00;101052.75;5294102;28;20032;-76
2022/11/14 11:15:14;;;;;;;15.48;12.25;;;;;;;8.27;100.00;101047.03;5307369;28;20031;-74
2022/11/14 11:18:21;;;;;;;16.17;12.10;;;;;;;8.25;100.00;101038.44;5296909;28;20084;-75
2022/11/14 11:21:13;;;;;;;16.73;12.90;;;;;;;8.32;100.00;101030.25;5291208;28;20282;-76
2022/11/14 11:23:56;;;;;;;14.90;12.53;;;;;;;8.39;100.00;101020.38;5286001;28;20043;-78
2022/11/14 11:26:30;;;;;;;22.30;14.83;;;;;;;8.56;100.00;101023.94;5296172;28;20035;-79
2022/11/14 11:29:15;;;;;;;17.90;13.32;;;;;;;8.50;100.00;101014.63;5295072;28;20040;-82
2022/11/14 11:31:55;;;;;;;15.67;12.83;;;;;;;8.65;100.00;101020.06;5294221;28;20024;-79
2022/11/14 11:34:31;;;;;;;15.97;13.73;;;;;;;8.55;100.00;101014.41;5295187;28;20048;-75
2022/11/14 11:37:14;;;;;;;15.47;13.73;;;;;;;8.55;100.00;101017.03;5291516;28;20458;-77
2022/11/14 11:39:59;;;;;;;16.47;14.20;;;;;;;8.72;100.00;101018.84;5290501;28;20408;-75
2022/11/14 11:42:41;;;;;;;16.77;14.23;;;;;;;8.60;100.00;101017.69;5293841;28;20032;-76
2022/11/14 11:45:17;;;;;;;19.53;14.80;;;;;;;8.53;100.00;101005.81;5292564;28;20063;-77
2022/11/14 11:48:04;;;;;;;20.33;15.73;;;;;;;8.60;100.00;101007.22;5295302;28;20024;-76
2022/11/14 11:50:35;;;;;;;17.20;14.70;;;;;;;8.70;100.00;101013.69;5297110;28;20024;-73